Time;durP1;ratioP1;P1;durP2;ratioP2;P2;SDS_P1;SDS_P2;PMS_P1;PMS_P2;Temp;Humidity;BMP_temperature;BMP_pressure;BME280_temperature;BME280_humidity;BME280_pressure;Samples;Min_cycle;Max_cycle;Signal;HPM_P1;HPM_P2
2023/09/10 00:01:02;;;;;;;27.25;24.70;;;18.10;99.90;;;;;;4999255;28;89204;-35
2023/09/10 00:03:28;;;;;;;28.38;25.73;;;18.10;99.90;;;;;;4998384;28;89839;-35
2023/09/10 00:05:54;;;;;;;30.35;27.58;;;18.00;99.90;;;;;;4996527;28;88858;-33
2023/09/10 00:08:20;;;;;;;28.90;25.83;;;18.00;99.90;;;;;;4980215;28;90119;-35
2023/09/10 00:10:46;;;;;;;30.67;27.50;;;18.00;99.90;;;;;;4998994;28;90378;-34
2023/09/10 00:13:12;;;;;;;32.72;29.45;;;18.00;99.90;;;;;;4997774;28;89382;-34
2023/09/10 00:15:38;;;;;;;33.83;30.02;;;18.00;99.90;;;;;;4999182;28;90344;-35
2023/09/10 00:18:04;;;;;;;36.13;32.03;;;18.00;99.90;;;;;;4998203;28;90094;-38
2023/09/10 00:20:29;;;;;;;36.92;33.08;;;18.00;99.90;;;;;;4998507;28;90559;-33
2023/09/10 00:22:56;;;;;;;34.40;30.90;;;18.00;99.90;;;;;;4986868;28;89591;-34
2023/09/10 00:25:22;;;;;;;37.47;32.50;;;18.00;99.90;;;;;;4985619;28;88174;-34
2023/09/10 00:27:47;;;;;;;34.92;31.45;;;18.00;99.90;;;;;;4999086;28;90509;-35
2023/09/10 00:30:13;;;;;;;34.92;31.33;;;18.00;99.90;;;;;;4988564;28;89274;-39
2023/09/10 00:32:38;;;;;;;36.17;32.42;;;18.00;99.90;;;;;;4995444;28;89192;-34
2023/09/10 00:35:05;;;;;;;42.00;37.47;;;18.00;99.90;;;;;;4998817;28;90859;-37
2023/09/10 00:37:30;;;;;;;45.33;40.30;;;18.00;99.90;;;;;;4998708;28;89406;-37
2023/09/10 00:39:56;;;;;;;49.60;44.20;;;18.00;99.90;;;;;;4998918;28;89631;-37
2023/09/10 00:42:22;;;;;;;40.88;36.55;;;18.00;99.90;;;;;;4998465;28;89389;-36
2023/09/10 00:44:48;;;;;;;51.03;44.67;;;17.90;99.90;;;;;;4999262;28;89736;-34
2023/09/10 00:47:14;;;;;;;47.72;42.78;;;17.80;99.90;;;;;;4992504;28;90364;-34
2023/09/10 00:49:40;;;;;;;48.92;40.85;;;17.80;99.90;;;;;;4999216;28;89731;-34
2023/09/10 00:52:07;;;;;;;51.90;46.13;;;17.80;99.90;;;;;;4998230;28;89211;-35
2023/09/10 00:54:34;;;;;;;50.83;44.95;;;17.80;99.90;;;;;;4998187;28;89880;-36
2023/09/10 00:57:01;;;;;;;51.23;45.70;;;17.70;99.90;;;;;;4998622;28;91620;-32
2023/09/10 00:59:29;;;;;;;49.75;44.00;;;17.70;99.90;;;;;;4997536;28;91683;-35
2023/09/10 01:01:55;;;;;;;45.95;40.88;;;17.60;99.90;;;;;;4997775;28;89812;-36
2023/09/10 01:04:22;;;;;;;33.70;30.33;;;17.50;99.90;;;;;;4997716;28;90016;-37
2023/09/10 01:06:50;;;;;;;30.05;27.15;;;17.30;99.90;;;;;;4997978;28;89902;-35
2023/09/10 01:09:15;;;;;;;37.58;33.72;;;17.40;99.90;;;;;;4998215;28;89608;-34
2023/09/10 01:11:50;;;;;;;36.05;31.92;;;17.30;99.90;;;;;;4998428;28;89006;-33
2023/09/10 01:14:22;;;;;;;49.13;43.60;;;17.30;99.90;;;;;;4993901;28;88674;-34
2023/09/10 01:16:52;;;;;;;42.80;38.20;;;17.30;99.90;;;;;;4993199;28;89906;-36
2023/09/10 01:19:36;;;;;;;49.67;43.25;;;17.30;99.90;;;;;;4972966;28;89834;-34
2023/09/10 01:22:12;;;;;;;44.95;40.28;;;17.30;99.90;;;;;;4980283;28;89735;-36
2023/09/10 01:24:47;;;;;;;50.30;42.72;;;17.30;99.90;;;;;;4997108;28;90649;-35
2023/09/10 01:27:14;;;;;;;41.45;37.15;;;17.30;99.90;;;;;;4997498;28;90041;-35
2023/09/10 01:29:39;;;;;;;38.47;34.42;;;17.30;99.90;;;;;;4997652;28;89781;-34
2023/09/10 01:32:31;;;;;;;49.10;43.78;;;17.30;99.90;;;;;;4997773;28;89572;-34
2023/09/10 01:35:12;;;;;;;49.42;42.53;;;17.30;99.90;;;;;;4997065;28;88941;-36
2023/09/10 01:37:49;;;;;;;49.45;43.92;;;17.30;99.90;;;;;;4998286;28;91330;-33
2023/09/10 01:40:20;;;;;;;46.83;40.78;;;17.30;99.90;;;;;;4997079;28;89801;-36
2023/09/10 01:42:48;;;;;;;52.83;44.00;;;17.30;99.90;;;;;;4998282;28;89192;-34
2023/09/10 01:45:14;;;;;;;51.10;44.05;;;17.30;99.90;;;;;;4997431;28;88157;-35
2023/09/10 01:47:40;;;;;;;51.70;46.13;;;17.30;99.90;;;;;;4997825;28;90211;-38
2023/09/10 01:50:07;;;;;;;51.05;45.53;;;17.30;99.90;;;;;;4998481;28;90423;-35
2023/09/10 01:52:33;;;;;;;50.35;44.45;;;17.30;99.90;;;;;;4996617;28;91502;-33
2023/09/10 01:54:58;;;;;;;51.67;45.60;;;17.30;99.90;;;;;;4998556;28;89121;-34
2023/09/10 01:57:24;;;;;;;52.22;46.55;;;17.30;99.90;;;;;;4996087;28;90300;-36
2023/09/10 01:59:50;;;;;;;50.17;44.72;;;17.30;99.90;;;;;;4997718;28;90237;-34
2023/09/10 02:02:16;;;;;;;54.83;47.90;;;17.20;99.90;;;;;;4979038;28;91470;-32
2023/09/10 02:04:41;;;;;;;53.47;47.88;;;17.20;99.90;;;;;;4997611;28;88212;-36
2023/09/10 02:07:07;;;;;;;52.75;46.45;;;17.20;99.90;;;;;;4997545;28;90156;-38
2023/09/10 02:09:33;;;;;;;55.38;48.53;;;17.20;99.90;;;;;;4997431;28;88570;-35
2023/09/10 02:11:58;;;;;;;48.42;42.80;;;17.20;99.90;;;;;;4996878;28;89873;-33
2023/09/10 02:14:24;;;;;;;50.30;43.35;;;17.20;99.90;;;;;;4997359;28;90376;-33
2023/09/10 02:16:50;;;;;;;53.25;45.08;;;17.20;99.90;;;;;;4991652;28;89576;-37
2023/09/10 02:19:15;;;;;;;53.30;45.47;;;17.20;99.90;;;;;;4989899;28;88659;-34
2023/09/10 02:21:41;;;;;;;43.88;39.22;;;17.20;99.90;;;;;;4984326;28;89580;-34
2023/09/10 02:24:07;;;;;;;54.80;48.60;;;17.20;99.90;;;;;;4996691;28;89517;-38
2023/09/10 02:26:32;;;;;;;52.25;46.08;;;17.20;99.90;;;;;;4997218;28;90308;-38
2023/09/10 02:28:58;;;;;;;53.75;45.70;;;17.20;99.90;;;;;;4997615;28;89895;-37
2023/09/10 02:31:25;;;;;;;53.17;47.53;;;17.10;99.90;;;;;;4996947;28;89699;-33
2023/09/10 02:33:51;;;;;;;56.17;50.03;;;17.10;99.90;;;;;;4996427;28;89365;-35
2023/09/10 02:36:16;;;;;;;49.33;43.88;;;17.10;99.90;;;;;;4997581;28;90236;-37
2023/09/10 02:38:42;;;;;;;54.58;48.40;;;17.10;99.90;;;;;;4996253;28;91303;-36
2023/09/10 02:41:07;;;;;;;58.47;49.33;;;17.10;99.90;;;;;;5000188;28;90678;-38
2023/09/10 02:43:33;;;;;;;57.05;49.47;;;17.00;99.90;;;;;;5001169;28;89422;-36
2023/09/10 02:45:59;;;;;;;51.75;45.20;;;17.00;99.90;;;;;;4986303;28;89099;-35
2023/09/10 02:48:24;;;;;;;54.45;48.50;;;17.00;99.90;;;;;;4982274;28;89423;-35
2023/09/10 02:50:50;;;;;;;57.17;50.50;;;17.00;99.90;;;;;;5000116;28;88880;-34
2023/09/10 02:53:15;;;;;;;61.90;55.13;;;17.00;99.90;;;;;;5000175;28;89479;-34
2023/09/10 02:55:41;;;;;;;58.95;50.97;;;17.00;99.90;;;;;;5000160;28;90639;-36
2023/09/10 02:58:07;;;;;;;53.13;46.83;;;17.00;99.90;;;;;;5000145;28;90179;-37
2023/09/10 03:00:32;;;;;;;55.65;45.85;;;17.00;99.90;;;;;;5000163;28;90144;-34
2023/09/10 03:02:58;;;;;;;53.25;46.80;;;17.00;99.90;;;;;;5000112;28;90175;-36
2023/09/10 03:05:24;;;;;;;50.83;45.33;;;17.00;99.90;;;;;;5000884;28;89486;-35
2023/09/10 03:07:54;;;;;;;53.45;47.30;;;17.00;99.90;;;;;;4999296;28;89723;-33
2023/09/10 03:10:20;;;;;;;51.67;46.22;;;17.00;99.90;;;;;;4999523;28;90099;-36
2023/09/10 03:12:46;;;;;;;51.53;45.58;;;17.00;99.90;;;;;;4988659;28;89852;-36
2023/09/10 03:15:13;;;;;;;57.20;47.15;;;17.00;99.90;;;;;;5000266;28;90725;-32
2023/09/10 03:17:39;;;;;;;55.97;49.72;;;17.00;99.90;;;;;;4987993;28;89726;-35
2023/09/10 03:20:08;;;;;;;56.33;48.63;;;17.00;99.90;;;;;;4999236;28;89996;-36
2023/09/10 03:22:35;;;;;;;58.13;51.80;;;17.00;99.90;;;;;;4987049;28;90465;-34
2023/09/10 03:25:00;;;;;;;63.50;54.90;;;17.00;99.90;;;;;;4999843;28;89960;-37
2023/09/10 03:27:26;;;;;;;57.33;51.13;;;17.00;99.90;;;;;;4999044;28;90814;-35
2023/09/10 03:29:51;;;;;;;59.03;46.83;;;16.90;99.90;;;;;;5000608;28;89948;-33
2023/09/10 03:32:17;;;;;;;52.10;45.58;;;16.90;99.90;;;;;;4999216;28;89027;-33
2023/09/10 03:34:43;;;;;;;54.75;48.72;;;16.90;99.90;;;;;;4999862;28;90448;-37
2023/09/10 03:37:08;;;;;;;54.65;46.85;;;16.80;99.90;;;;;;4999109;28;88934;-37
2023/09/10 03:39:34;;;;;;;55.15;48.35;;;16.80;99.90;;;;;;4999519;28;89333;-36
2023/09/10 03:42:00;;;;;;;53.78;46.83;;;16.80;99.90;;;;;;5000171;28;88936;-34
2023/09/10 03:44:25;;;;;;;56.78;48.65;;;16.80;99.90;;;;;;4998616;28;90216;-37
2023/09/10 03:46:52;;;;;;;56.80;48.78;;;16.70;99.90;;;;;;4987717;28;89920;-35
2023/09/10 03:49:18;;;;;;;50.47;44.95;;;16.70;99.90;;;;;;4999240;28;90522;-35
2023/09/10 03:51:44;;;;;;;44.83;39.97;;;16.70;99.90;;;;;;4997382;28;88106;-34
2023/09/10 03:54:11;;;;;;;47.92;42.75;;;16.70;99.90;;;;;;4998741;28;89072;-35
2023/09/10 03:56:39;;;;;;;46.50;41.43;;;16.70;99.90;;;;;;4999261;28;89707;-36
2023/09/10 03:59:06;;;;;;;50.30;44.65;;;16.70;99.90;;;;;;4998709;28;89279;-36
2023/09/10 04:01:32;;;;;;;45.50;40.77;;;16.70;99.90;;;;;;4999869;28;90255;-33
2023/09/10 04:03:58;;;;;;;54.85;46.45;;;16.80;99.90;;;;;;4998714;28;90511;-36
2023/09/10 04:06:23;;;;;;;53.25;47.42;;;16.70;99.90;;;;;;4999183;28;89280;-35
2023/09/10 04:08:49;;;;;;;42.33;37.75;;;16.80;99.90;;;;;;4999779;28;89527;-34
2023/09/10 04:11:15;;;;;;;41.95;37.38;;;16.70;99.90;;;;;;4999519;28;89146;-34
2023/09/10 04:13:40;;;;;;;38.17;33.85;;;16.40;99.90;;;;;;4998806;28;89262;-36
2023/09/10 04:16:06;;;;;;;37.67;33.58;;;16.30;99.90;;;;;;4998552;28;90657;-36
2023/09/10 04:18:34;;;;;;;39.67;35.30;;;16.30;99.90;;;;;;4985284;28;90861;-35
2023/09/10 04:21:03;;;;;;;40.80;36.47;;;16.30;99.90;;;;;;4993517;28;89530;-35
2023/09/10 04:23:29;;;;;;;44.85;39.58;;;16.40;99.90;;;;;;4992697;28;90111;-36
2023/09/10 04:25:55;;;;;;;51.25;44.20;;;16.40;99.90;;;;;;4980437;28;90297;-34
2023/09/10 04:28:21;;;;;;;46.65;41.63;;;16.40;99.90;;;;;;4998131;28;89600;-34
2023/09/10 04:30:46;;;;;;;46.55;41.22;;;16.30;99.90;;;;;;4999426;28;88946;-33
2023/09/10 04:33:12;;;;;;;47.45;41.42;;;16.30;99.90;;;;;;4997156;28;89231;-36
2023/09/10 04:35:46;;;;;;;45.63;39.47;;;16.30;99.90;;;;;;4999865;28;90076;-33
2023/09/10 04:38:12;;;;;;;44.25;38.03;;;16.30;99.90;;;;;;4998320;28;90049;-33
2023/09/10 04:40:37;;;;;;;47.40;41.05;;;16.20;99.90;;;;;;4999387;28;90252;-32
2023/09/10 04:43:03;;;;;;;46.97;40.08;;;16.30;99.90;;;;;;4997804;28;90280;-33
2023/09/10 04:45:29;;;;;;;52.30;45.10;;;16.30;99.90;;;;;;4999102;28;88602;-37
2023/09/10 04:47:54;;;;;;;46.75;41.72;;;16.30;99.90;;;;;;4998316;28;89226;-35
2023/09/10 04:50:20;;;;;;;40.17;32.40;;;16.20;99.90;;;;;;4998683;28;89840;-37
2023/09/10 04:52:46;;;;;;;33.53;30.23;;;16.10;99.90;;;;;;4997704;28;90355;-33
2023/09/10 04:55:11;;;;;;;34.65;31.20;;;16.00;99.90;;;;;;4998313;28;89855;-32
2023/09/10 04:57:37;;;;;;;36.33;32.15;;;15.90;99.90;;;;;;4998616;28;89355;-37
2023/09/10 05:00:02;;;;;;;35.13;31.50;;;15.90;99.90;;;;;;4998611;28;89230;-33
2023/09/10 05:02:28;;;;;;;39.00;34.95;;;15.90;99.90;;;;;;4996502;28;90910;-38
2023/09/10 05:04:54;;;;;;;41.55;35.58;;;15.90;99.90;;;;;;4997345;28;90619;-36
2023/09/10 05:07:19;;;;;;;40.08;35.70;;;15.90;99.90;;;;;;4994305;28;90531;-37
2023/09/10 05:09:45;;;;;;;37.03;33.05;;;15.90;99.90;;;;;;4989691;28;89219;-35
2023/09/10 05:12:11;;;;;;;42.53;36.00;;;15.90;99.90;;;;;;4997861;28;90164;-34
2023/09/10 05:14:36;;;;;;;41.10;36.58;;;15.90;99.90;;;;;;4998083;28;89875;-35
2023/09/10 05:17:02;;;;;;;40.15;35.92;;;15.90;99.90;;;;;;4990481;28;89811;-36
2023/09/10 05:19:27;;;;;;;37.25;33.40;;;15.90;99.90;;;;;;4991649;28;88514;-37
2023/09/10 05:21:53;;;;;;;34.88;29.30;;;15.80;99.90;;;;;;4998399;28;90342;-35
2023/09/10 05:24:19;;;;;;;36.42;32.45;;;15.80;99.90;;;;;;4996118;28;89396;-36
2023/09/10 05:26:44;;;;;;;35.20;31.58;;;15.80;99.90;;;;;;4992968;28;89774;-35
2023/09/10 05:29:10;;;;;;;35.20;31.70;;;15.70;99.90;;;;;;4996644;28;89737;-34
2023/09/10 05:31:36;;;;;;;30.70;27.38;;;15.70;99.90;;;;;;4980327;28;89345;-34
2023/09/10 05:34:03;;;;;;;33.80;30.33;;;15.70;99.90;;;;;;4996894;28;89916;-35
2023/09/10 05:36:29;;;;;;;35.03;26.75;;;15.70;99.90;;;;;;4997463;28;89856;-33
2023/09/10 05:38:55;;;;;;;35.35;30.92;;;15.70;99.90;;;;;;4997710;28;89363;-35
2023/09/10 05:41:20;;;;;;;37.33;32.08;;;15.70;99.90;;;;;;4997470;28;90383;-35
2023/09/10 05:43:46;;;;;;;31.13;26.92;;;15.60;99.90;;;;;;4995288;28;89366;-37
2023/09/10 05:46:11;;;;;;;31.02;27.92;;;15.70;99.90;;;;;;4993959;28;90395;-32
2023/09/10 05:48:37;;;;;;;32.63;29.20;;;15.60;99.90;;;;;;4990271;28;88736;-39
2023/09/10 05:51:03;;;;;;;30.58;27.35;;;15.60;99.90;;;;;;4997379;28;89360;-37
2023/09/10 05:53:28;;;;;;;34.92;31.13;;;15.70;99.90;;;;;;4996040;28;90362;-35
2023/09/10 05:55:54;;;;;;;34.95;31.10;;;15.70;99.90;;;;;;4998111;28;90425;-36
2023/09/10 05:58:20;;;;;;;36.60;31.58;;;15.80;99.90;;;;;;4996987;28;88865;-37
2023/09/10 06:00:46;;;;;;;34.65;30.77;;;15.80;99.90;;;;;;4998001;28;89811;-33
2023/09/10 06:03:11;;;;;;;35.67;32.03;;;15.90;99.90;;;;;;4997964;28;89710;-33
2023/09/10 06:05:37;;;;;;;33.15;29.63;;;15.90;99.90;;;;;;4997124;28;89520;-37
2023/09/10 06:08:03;;;;;;;35.38;31.85;;;16.00;99.90;;;;;;4997773;28;88110;-35
2023/09/10 06:10:28;;;;;;;34.13;30.63;;;16.00;99.90;;;;;;4997631;28;90439;-34
2023/09/10 06:12:54;;;;;;;35.45;31.75;;;16.10;99.90;;;;;;4997625;28;89256;-32
2023/09/10 06:15:20;;;;;;;34.35;30.83;;;16.10;99.90;;;;;;4998757;28;88728;-32
2023/09/10 06:17:46;;;;;;;33.63;30.33;;;16.10;99.90;;;;;;4987391;28;90462;-36
2023/09/10 06:20:12;;;;;;;31.30;28.05;;;16.20;99.90;;;;;;5000201;28;89948;-33
2023/09/10 06:22:37;;;;;;;35.58;31.92;;;16.30;99.90;;;;;;4987471;28;89333;-36
2023/09/10 06:25:03;;;;;;;37.45;33.05;;;16.30;99.90;;;;;;5000319;28;90175;-36
2023/09/10 06:27:29;;;;;;;39.40;35.22;;;16.40;99.90;;;;;;5000661;28;90276;-35
2023/09/10 06:29:54;;;;;;;38.45;34.33;;;16.50;99.90;;;;;;5000362;28;90164;-33
2023/09/10 06:32:20;;;;;;;44.83;40.20;;;16.60;99.90;;;;;;5000641;28;89532;-33
2023/09/10 06:34:46;;;;;;;46.42;41.55;;;16.70;99.90;;;;;;5000357;28;89822;-35
2023/09/10 06:37:12;;;;;;;52.38;46.80;;;16.70;99.90;;;;;;4999664;28;89754;-34
2023/09/10 06:39:40;;;;;;;48.75;43.40;;;16.70;99.90;;;;;;4999584;28;90594;-35
2023/09/10 06:42:08;;;;;;;59.15;50.15;;;16.80;99.90;;;;;;4999975;28;90789;-33
2023/09/10 06:44:33;;;;;;;58.40;51.50;;;16.90;99.90;;;;;;4999815;28;90682;-35
2023/09/10 06:47:00;;;;;;;68.97;59.80;;;17.10;99.90;;;;;;5001095;28;89571;-34
2023/09/10 06:49:27;;;;;;;65.40;58.22;;;17.20;99.90;;;;;;4999674;28;90240;-36
2023/09/10 06:51:52;;;;;;;68.28;59.90;;;17.30;99.90;;;;;;5000202;28;89982;-35
2023/09/10 06:54:18;;;;;;;62.40;55.58;;;17.40;99.90;;;;;;4999018;28;89689;-34
2023/09/10 06:56:43;;;;;;;64.32;55.35;;;17.60;99.90;;;;;;4999805;28;88993;-33
2023/09/10 06:59:09;;;;;;;63.30;56.45;;;17.70;99.90;;;;;;5000013;28;90703;-35
2023/09/10 07:01:38;;;;;;;67.95;56.97;;;17.80;99.90;;;;;;5000001;28;90004;-33
2023/09/10 07:04:17;;;;;;;69.22;61.17;;;18.00;99.90;;;;;;4999184;28;89590;-33
2023/09/10 07:06:43;;;;;;;74.18;60.33;;;18.20;99.90;;;;;;4986527;28;89317;-34
2023/09/10 07:09:10;;;;;;;68.35;59.85;;;18.30;99.90;;;;;;4979585;28;89965;-35
2023/09/10 07:11:37;;;;;;;71.45;63.75;;;18.40;99.90;;;;;;4998477;28;89209;-34
2023/09/10 07:14:02;;;;;;;69.55;59.80;;;18.60;99.90;;;;;;4996413;28;90146;-33
2023/09/10 07:16:28;;;;;;;65.68;58.30;;;18.70;99.90;;;;;;4995246;28;88927;-32
2023/09/10 07:18:54;;;;;;;67.20;56.28;;;18.70;99.90;;;;;;4987024;28;91020;-35
2023/09/10 07:21:19;;;;;;;70.22;59.10;;;18.90;99.90;;;;;;4996466;28;89508;-36
2023/09/10 07:23:45;;;;;;;64.93;58.08;;;19.10;99.90;;;;;;4997329;28;89377;-36
2023/09/10 07:26:11;;;;;;;63.60;56.85;;;19.30;99.90;;;;;;4997524;28;89119;-35
2023/09/10 07:28:36;;;;;;;63.45;56.80;;;19.40;99.90;;;;;;4995857;28;89526;-33
2023/09/10 07:31:02;;;;;;;61.05;54.35;;;19.60;99.90;;;;;;4997023;28;90491;-35
2023/09/10 07:33:28;;;;;;;65.15;58.10;;;19.80;99.90;;;;;;4985560;28;90509;-35
2023/09/10 07:35:54;;;;;;;63.90;57.03;;;19.90;99.90;;;;;;4997207;28;90050;-33
2023/09/10 07:38:20;;;;;;;62.58;55.85;;;20.10;99.90;;;;;;4996377;28;89873;-37
2023/09/10 07:40:46;;;;;;;65.03;58.03;;;20.20;99.90;;;;;;4993161;28;89589;-36
2023/09/10 07:43:11;;;;;;;62.80;56.00;;;20.30;99.90;;;;;;4994028;28;88902;-36
2023/09/10 07:45:39;;;;;;;58.25;52.17;;;20.40;99.90;;;;;;4996489;28;89587;-35
2023/09/10 07:48:05;;;;;;;58.40;51.33;;;20.60;99.90;;;;;;4996823;28;90345;-36
2023/09/10 07:50:31;;;;;;;56.63;50.53;;;20.80;99.90;;;;;;4995193;28;90086;-34
2023/09/10 07:52:57;;;;;;;56.80;50.58;;;20.90;99.90;;;;;;4996856;28;89073;-33
2023/09/10 07:55:23;;;;;;;54.08;48.38;;;21.00;99.90;;;;;;4995818;28;89468;-32
2023/09/10 07:57:49;;;;;;;54.17;48.45;;;21.20;99.90;;;;;;4996263;28;89273;-37
2023/09/10 08:00:16;;;;;;;52.15;46.85;;;21.30;99.90;;;;;;4996733;28;89481;-36
2023/09/10 08:02:41;;;;;;;53.40;47.75;;;21.50;99.90;;;;;;4990873;28;89878;-36
2023/09/10 08:05:08;;;;;;;51.75;46.17;;;21.50;99.90;;;;;;4992710;28;89227;-35
2023/09/10 08:07:34;;;;;;;49.58;44.85;;;21.70;99.90;;;;;;4997111;28;90727;-33
2023/09/10 08:10:00;;;;;;;53.35;47.53;;;21.90;99.90;;;;;;4996101;28;89567;-36
2023/09/10 08:12:26;;;;;;;53.65;48.33;;;22.10;99.90;;;;;;4995400;28;88423;-37
2023/09/10 08:14:51;;;;;;;48.97;44.15;;;22.20;99.90;;;;;;4996702;28;88107;-33
2023/09/10 08:17:17;;;;;;;47.55;42.38;;;22.40;99.90;;;;;;4986696;28;90699;-35
2023/09/10 08:19:43;;;;;;;45.85;41.17;;;22.60;99.90;;;;;;4991431;28;89297;-33
2023/09/10 08:22:09;;;;;;;44.33;39.72;;;22.70;99.90;;;;;;4982673;28;90656;-31
2023/09/10 08:24:34;;;;;;;40.63;36.55;;;22.80;99.90;;;;;;4996236;28;89961;-32
2023/09/10 08:27:03;;;;;;;41.97;37.38;;;23.00;99.90;;;;;;4982407;28;89638;-36
2023/09/10 08:29:29;;;;;;;39.67;35.67;;;23.20;99.90;;;;;;4994908;28;90282;-35
2023/09/10 08:31:55;;;;;;;40.83;36.80;;;23.30;99.90;;;;;;4995654;28;89497;-35
2023/09/10 08:34:21;;;;;;;40.92;36.88;;;23.50;99.90;;;;;;5007238;22;89601;-36
2023/09/10 08:36:47;;;;;;;41.55;37.00;;;23.70;99.90;;;;;;4976434;28;90532;-34
2023/09/10 08:39:12;;;;;;;39.13;35.20;;;23.90;99.90;;;;;;4964920;28;88981;-35
2023/09/10 08:41:54;;;;;;;40.33;36.25;;;23.80;99.90;;;;;;4972536;28;89101;-37
2023/09/10 08:44:21;;;;;;;32.75;29.45;;;23.90;99.90;;;;;;4962223;28;89493;-35
2023/09/10 08:46:51;;;;;;;34.25;30.85;;;24.00;99.90;;;;;;4976251;28;90839;-34
2023/09/10 08:49:20;;;;;;;32.28;29.00;;;24.00;99.90;;;;;;4975444;28;89498;-35
2023/09/10 08:51:46;;;;;;;35.78;32.00;;;24.00;99.90;;;;;;4975159;28;89550;-36
2023/09/10 08:54:13;;;;;;;37.42;33.63;;;24.10;99.90;;;;;;4976125;28;89760;-37
2023/09/10 08:56:40;;;;;;;36.45;32.80;;;24.00;99.90;;;;;;4975694;28;90065;-37
2023/09/10 08:59:07;;;;;;;33.22;29.65;;;24.10;99.90;;;;;;4976154;28;89522;-34
2023/09/10 09:01:33;;;;;;;38.58;34.85;;;24.20;99.90;;;;;;4975627;28;89633;-37
2023/09/10 09:04:00;;;;;;;34.83;31.10;;;24.30;99.90;;;;;;4975486;28;88031;-35
2023/09/10 09:06:31;;;;;;;33.08;30.02;;;24.30;99.90;;;;;;4975358;28;90283;-33
2023/09/10 09:08:59;;;;;;;33.10;29.83;;;24.50;99.90;;;;;;4971147;28;90813;-36
2023/09/10 09:11:27;;;;;;;30.63;27.70;;;24.50;99.90;;;;;;4967498;28;90425;-35
2023/09/10 09:13:55;;;;;;;33.35;29.92;;;24.50;99.90;;;;;;4974228;28;88167;-34
2023/09/10 09:16:21;;;;;;;30.27;27.17;;;24.70;99.90;;;;;;4973470;28;90280;-37
2023/09/10 09:18:48;;;;;;;24.40;21.90;;;24.70;99.90;;;;;;4963700;28;90019;-33
2023/09/10 09:21:24;;;;;;;27.10;24.35;;;24.80;99.90;;;;;;4966440;28;89421;-38
2023/09/10 09:23:56;;;;;;;23.55;21.23;;;24.70;99.90;;;;;;4972377;28;88651;-36
2023/09/10 09:26:22;;;;;;;20.08;18.25;;;24.90;99.90;;;;;;4975215;28;89935;-33
2023/09/10 09:28:48;;;;;;;22.63;20.63;;;25.10;99.90;;;;;;4975155;28;89160;-36
2023/09/10 09:31:14;;;;;;;21.90;18.83;;;25.10;99.90;;;;;;4973655;28;90263;-35
2023/09/10 09:33:40;;;;;;;25.17;19.48;;;25.10;99.90;;;;;;4978864;28;88861;-36
2023/09/10 09:36:10;;;;;;;15.45;14.13;;;25.20;99.90;;;;;;4995541;28;89978;-34
2023/09/10 09:38:42;;;;;;;20.38;17.52;;;25.20;99.90;;;;;;4995227;28;89934;-34
2023/09/10 09:41:08;;;;;;;25.02;21.40;;;25.40;99.90;;;;;;4987241;28;90146;-38
2023/09/10 09:43:34;;;;;;;19.00;16.85;;;25.40;99.90;;;;;;4995062;28;89988;-35
2023/09/10 09:46:03;;;;;;;21.00;18.83;;;25.30;99.90;;;;;;4995038;28;89698;-34
2023/09/10 09:48:29;;;;;;;17.00;15.43;;;25.50;99.90;;;;;;4994052;28;90226;-34
2023/09/10 09:50:56;;;;;;;23.58;21.20;;;25.60;99.90;;;;;;4994812;28;90981;-35
2023/09/10 09:53:26;;;;;;;20.08;18.08;;;25.60;99.90;;;;;;4994787;28;89278;-33
2023/09/10 09:56:04;;;;;;;22.40;20.13;;;25.70;99.90;;;;;;4994393;28;90549;-33
2023/09/10 09:58:30;;;;;;;25.80;21.33;;;25.70;99.90;;;;;;4994705;28;90281;-33
2023/09/10 10:00:56;;;;;;;20.00;18.20;;;25.70;99.90;;;;;;4995062;28;90371;-34
2023/09/10 10:03:22;;;;;;;22.67;20.48;;;25.90;99.90;;;;;;4994428;28;90619;-34
2023/09/10 10:05:50;;;;;;;21.80;19.80;;;25.90;99.90;;;;;;4991810;28;90365;-34
2023/09/10 10:08:16;;;;;;;23.77;21.30;;;25.90;99.90;;;;;;4985047;28;90229;-36
2023/09/10 10:10:46;;;;;;;22.13;19.98;;;25.90;99.90;;;;;;4993570;28;89557;-34
2023/09/10 10:13:20;;;;;;;17.63;16.02;;;26.00;99.90;;;;;;4995041;28;88721;-36
2023/09/10 10:15:48;;;;;;;20.38;17.83;;;26.10;99.90;;;;;;4994942;28;90275;-32
2023/09/10 10:18:15;;;;;;;23.95;21.25;;;26.10;99.90;;;;;;4980308;28;90028;-34
2023/09/10 10:20:46;;;;;;;23.83;19.85;;;26.00;99.90;;;;;;4994628;28;89294;-38
2023/09/10 10:23:13;;;;;;;21.58;19.50;;;26.10;99.90;;;;;;4994395;28;90386;-35
2023/09/10 10:25:39;;;;;;;19.30;17.27;;;26.00;99.90;;;;;;4993499;28;89873;-33
2023/09/10 10:28:09;;;;;;;20.40;18.48;;;26.10;99.90;;;;;;4994202;28;89664;-33
2023/09/10 10:30:37;;;;;;;22.48;20.13;;;26.00;99.90;;;;;;4994265;28;88153;-35
2023/09/10 10:33:06;;;;;;;18.10;16.52;;;26.10;99.90;;;;;;4992962;28;89706;-38
2023/09/10 10:35:35;;;;;;;21.98;19.73;;;26.20;99.90;;;;;;4982017;28;90056;-33
2023/09/10 10:38:03;;;;;;;18.67;16.88;;;26.00;99.90;;;;;;4993418;28;90073;-34
2023/09/10 10:40:37;;;;;;;18.40;16.60;;;26.00;99.90;;;;;;4993784;28;91141;-36
2023/09/10 10:43:10;;;;;;;17.85;16.15;;;26.10;99.90;;;;;;4994444;28;88562;-35
2023/09/10 10:45:36;;;;;;;16.60;15.00;;;26.30;99.90;;;;;;4994611;28;90936;-34
2023/09/10 10:48:24;;;;;;;16.83;15.00;;;26.40;99.90;;;;;;4992542;28;90791;-34
2023/09/10 10:50:53;;;;;;;22.75;20.58;;;26.50;99.90;;;;;;4993928;28;89468;-37
2023/09/10 10:53:21;;;;;;;20.10;18.30;;;26.60;99.90;;;;;;4982146;28;88520;-37
2023/09/10 10:55:53;;;;;;;22.13;19.67;;;26.60;99.90;;;;;;4975051;28;91999;-33
2023/09/10 10:58:25;;;;;;;22.90;20.50;;;26.60;99.90;;;;;;4993509;28;89674;-37
2023/09/10 11:00:52;;;;;;;21.73;19.50;;;26.40;99.90;;;;;;4990127;28;89612;-35
2023/09/10 11:03:20;;;;;;;17.98;15.93;;;26.30;99.90;;;;;;4996815;28;89839;-33
2023/09/10 11:05:52;;;;;;;20.90;18.70;;;26.30;99.90;;;;;;4978826;28;90506;-35
2023/09/10 11:08:28;;;;;;;17.45;15.85;;;26.40;99.90;;;;;;4997185;28;90770;-34
2023/09/10 11:10:54;;;;;;;21.27;19.25;;;26.60;99.90;;;;;;4995903;28;88898;-31
2023/09/10 11:13:19;;;;;;;19.55;17.67;;;26.70;99.90;;;;;;4993043;28;88897;-32
2023/09/10 11:16:03;;;;;;;20.20;17.35;;;26.70;99.90;;;;;;4995955;28;89847;-33
2023/09/10 11:18:35;;;;;;;16.45;15.00;;;26.70;99.90;;;;;;4990800;28;89758;-36
2023/09/10 11:21:06;;;;;;;18.73;16.95;;;26.80;99.90;;;;;;4965255;28;89524;-34
2023/09/10 11:23:36;;;;;;;17.90;16.27;;;26.90;99.90;;;;;;4990509;28;89238;-34
2023/09/10 11:26:14;;;;;;;20.75;18.20;;;27.00;99.90;;;;;;4995236;28;90919;-34
2023/09/10 11:28:44;;;;;;;;;;;26.90;99.90;;;;;;4995444;28;90000;-37
2023/09/10 11:31:37;;;;;;;21.27;19.23;;;26.90;99.90;;;;;;4998027;28;89561;-35
2023/09/10 11:34:31;;;;;;;18.70;17.08;;;26.80;99.90;;;;;;4991645;28;89277;-34
2023/09/10 11:37:04;;;;;;;19.60;17.88;;;26.90;99.90;;;;;;4990867;28;90314;-34
2023/09/10 11:39:32;;;;;;;19.52;17.88;;;26.80;99.90;;;;;;4988198;28;90583;-32
2023/09/10 11:41:59;;;;;;;18.05;15.93;;;26.80;99.90;;;;;;4989272;28;90756;-36
2023/09/10 11:44:25;;;;;;;28.33;18.58;;;26.80;99.90;;;;;;4995918;28;91057;-35
2023/09/10 11:46:52;;;;;;;19.38;17.67;;;26.70;99.90;;;;;;4989675;28;90330;-34
2023/09/10 11:49:19;;;;;;;19.02;17.23;;;26.60;99.90;;;;;;4989512;28;89142;-34
2023/09/10 11:51:47;;;;;;;19.27;17.52;;;26.70;99.90;;;;;;4996667;28;89842;-37
2023/09/10 11:54:16;;;;;;;20.08;18.17;;;26.80;99.90;;;;;;4991320;28;88819;-36
2023/09/10 11:56:55;;;;;;;22.25;17.77;;;26.80;99.90;;;;;;4978827;28;90108;-34
2023/09/10 11:59:23;;;;;;;18.52;16.92;;;26.80;99.90;;;;;;4974865;28;90142;-34
2023/09/10 12:01:52;;;;;;;23.88;19.20;;;26.70;99.90;;;;;;4996099;28;89558;-34
2023/09/10 12:04:19;;;;;;;21.67;18.38;;;26.70;99.90;;;;;;4995782;28;90254;-36
2023/09/10 12:06:45;;;;;;;19.10;17.25;;;26.70;99.90;;;;;;4996085;28;90840;-33
2023/09/10 12:09:13;;;;;;;18.85;15.68;;;26.80;99.90;;;;;;4995580;28;89532;-37
2023/09/10 12:11:41;;;;;;;20.48;18.25;;;26.90;99.90;;;;;;4995381;28;89672;-36
2023/09/10 12:14:07;;;;;;;17.35;13.80;;;27.00;99.90;;;;;;4996616;28;89093;-37
2023/09/10 12:16:32;;;;;;;18.90;17.05;;;27.00;99.90;;;;;;4991486;28;90095;-34
2023/09/10 12:18:59;;;;;;;18.13;16.45;;;26.90;99.90;;;;;;4986515;28;89806;-35
2023/09/10 12:21:25;;;;;;;18.40;16.63;;;26.90;99.90;;;;;;4985734;28;90631;-35
2023/09/10 12:23:51;;;;;;;16.75;15.20;;;26.80;99.90;;;;;;4992067;28;88911;-33
2023/09/10 12:26:19;;;;;;;16.55;14.60;;;26.80;99.90;;;;;;4996781;28;89958;-36
2023/09/10 12:28:45;;;;;;;16.40;15.00;;;26.90;99.90;;;;;;4996095;28;90878;-36